Time;durP1;ratioP1;P1;durP2;ratioP2;P2;SDS_P1;SDS_P2;PMS_P1;PMS_P2;Temp;Humidity;BMP_temperature;BMP_pressure;BME280_temperature;BME280_humidity;BME280_pressure;Samples;Min_cycle;Max_cycle;Signal;HPM_P1;HPM_P2
2022/08/05 00:00:18;;;;;;;8.43;3.45;;;;;;;20.20;54.70;99142.70;1735666;82;20987;-82
2022/08/05 00:02:47;;;;;;;6.50;3.30;;;;;;;20.17;53.96;99137.60;1738548;82;21000;-81
2022/08/05 00:05:14;;;;;;;6.72;3.62;;;;;;;20.13;54.71;99137.42;1734068;82;20985;-81
2022/08/05 00:07:40;;;;;;;5.70;3.42;;;;;;;20.07;54.69;99134.70;1731627;83;21025;-82
2022/08/05 00:10:08;;;;;;;10.53;3.50;;;;;;;19.98;54.33;99136.62;1728362;83;21557;-81
2022/08/05 00:12:35;;;;;;;7.40;3.50;;;;;;;19.92;55.76;99136.53;1710941;83;21041;-78
2022/08/05 00:15:01;;;;;;;9.75;3.72;;;;;;;19.88;53.95;99136.83;1736128;82;21054;-78
2022/08/05 00:17:28;;;;;;;8.20;3.77;;;;;;;19.78;55.81;99131.28;1724414;83;21031;-78
2022/08/05 00:19:54;;;;;;;7.42;3.95;;;;;;;19.69;55.10;99147.16;1724566;83;21095;-80
2022/08/05 00:22:21;;;;;;;10.03;3.92;;;;;;;19.60;56.24;99141.98;1708833;83;21144;-79
2022/08/05 00:24:48;;;;;;;8.88;3.62;;;;;;;19.55;56.87;99139.25;1719737;83;21011;-79
2022/08/05 00:27:14;;;;;;;6.20;3.40;;;;;;;19.52;57.57;99132.39;1707896;84;21095;-78
2022/08/05 00:29:41;;;;;;;9.63;3.60;;;;;;;19.50;57.62;99136.04;1712868;82;20990;-81
2022/08/05 00:32:11;;;;;;;6.30;3.42;;;;;;;19.50;57.94;99140.86;1728296;82;21498;-81
2022/08/05 00:34:36;;;;;;;6.17;3.75;;;;;;;19.48;57.72;99136.16;1711022;83;21484;-80
2022/08/05 00:37:02;;;;;;;12.85;3.52;;;;;;;19.44;56.79;99139.92;1718983;83;21011;-80
2022/08/05 00:39:29;;;;;;;5.72;3.20;;;;;;;19.38;56.10;99137.19;1692514;84;21070;-82
2022/08/05 00:41:55;;;;;;;8.58;3.90;;;;;;;19.37;56.76;99135.95;1676241;85;21009;-81
2022/08/05 00:44:23;;;;;;;6.65;3.70;;;;;;;19.35;57.24;99133.41;1739818;82;20991;-80
2022/08/05 00:46:50;;;;;;;8.13;3.80;;;;;;;19.33;56.49;99139.72;1693736;85;21039;-80
2022/08/05 00:49:18;;;;;;;5.25;3.27;;;;;;;19.32;57.74;99139.33;1704306;83;21570;-81
2022/08/05 00:51:45;;;;;;;9.88;3.95;;;;;;;19.31;57.70;99140.28;1689546;84;21093;-80
2022/08/05 00:54:13;;;;;;;10.13;3.47;;;;;;;19.29;57.24;99139.05;1687104;85;21043;-81
2022/08/05 00:56:39;;;;;;;8.45;3.42;;;;;;;19.27;58.29;99136.50;1688371;85;21039;-80
2022/08/05 00:59:06;;;;;;;7.45;3.55;;;;;;;19.27;58.36;99143.09;1705734;83;21547;-80
2022/08/05 01:01:33;;;;;;;12.47;3.77;;;;;;;19.28;57.75;99139.53;1725456;83;21571;-80
2022/08/05 01:03:59;;;;;;;10.45;3.83;;;;;;;19.27;58.34;99137.81;1720515;82;20979;-80
2022/08/05 01:06:26;;;;;;;5.80;2.90;;;;;;;19.27;58.10;99136.50;1723416;82;20971;-80
2022/08/05 01:08:53;;;;;;;8.85;3.60;;;;;;;19.24;58.58;99134.55;1718126;83;20985;-80
2022/08/05 01:11:24;;;;;;;9.25;3.10;;;;;;;19.25;57.43;99142.81;1712219;82;21079;-81
2022/08/05 01:14:00;;;;;;;5.20;3.20;;;;;;;19.23;58.76;99141.58;1703668;83;21034;-80
2022/08/05 01:16:35;;;;;;;5.97;3.40;;;;;;;19.21;57.38;99142.14;1711246;83;21551;-80
2022/08/05 01:19:23;;;;;;;6.10;3.00;;;;;;;19.20;58.30;99140.91;1711295;83;21012;-80
2022/08/05 01:22:19;;;;;;;7.08;3.40;;;;;;;19.20;58.57;99140.46;1700744;83;20999;-81
2022/08/05 01:25:43;;;;;;;7.67;3.40;;;;;;;19.20;58.84;99132.55;1718622;83;21047;-80
2022/08/05 01:28:36;;;;;;;5.90;3.30;;;;;;;19.23;59.08;99132.35;1708169;83;21026;-80
2022/08/05 01:31:29;;;;;;;9.47;3.90;;;;;;;19.28;59.32;99134.73;1697004;83;21031;-80
2022/08/05 01:34:18;;;;;;;9.15;3.60;;;;;;;19.23;58.60;99143.38;1716010;83;21040;-80
2022/08/05 01:37:07;;;;;;;8.98;4.00;;;;;;;19.13;57.95;99135.64;1708783;83;21039;-80
2022/08/05 01:39:36;;;;;;;6.00;3.80;;;;;;;19.05;58.15;99142.20;1702650;83;21071;-80
2022/08/05 01:42:05;;;;;;;6.85;3.80;;;;;;;18.98;57.91;99137.39;1718439;83;21024;-81
2022/08/05 01:44:33;;;;;;;8.03;3.75;;;;;;;18.93;59.85;99142.09;1705683;83;21023;-81
2022/08/05 01:47:02;;;;;;;7.05;3.75;;;;;;;18.84;60.20;99140.37;1672446;84;20999;-81
2022/08/05 01:49:31;;;;;;;6.03;3.85;;;;;;;18.76;60.63;99139.08;1683538;84;20988;-80
2022/08/05 01:52:00;;;;;;;7.50;3.95;;;;;;;18.72;60.36;99149.41;1690123;84;21149;-80
2022/08/05 01:54:32;;;;;;;8.63;3.80;;;;;;;18.69;60.29;99143.86;1693367;84;21082;-80
2022/08/05 01:57:01;;;;;;;8.75;4.22;;;;;;;18.65;60.58;99151.56;1690292;84;21566;-80
2022/08/05 01:59:31;;;;;;;6.12;3.90;;;;;;;18.62;60.35;99144.70;1693828;84;21082;-82
2022/08/05 02:02:00;;;;;;;10.00;4.10;;;;;;;18.60;61.01;99139.11;1691035;84;21034;-80
2022/08/05 02:04:30;;;;;;;7.05;4.22;;;;;;;18.58;60.86;99131.77;1692319;84;22188;-80
2022/08/05 02:06:58;;;;;;;9.60;4.10;;;;;;;18.53;60.26;99136.47;1694667;84;20988;-80
2022/08/05 02:09:25;;;;;;;10.75;3.80;;;;;;;18.49;61.78;99136.64;1694874;84;21004;-80
2022/08/05 02:12:20;;;;;;;14.40;4.28;;;;;;;18.45;60.99;99135.59;1688790;84;21055;-80
2022/08/05 02:15:00;;;;;;;9.35;4.30;;;;;;;18.38;60.83;99135.09;1684368;84;21503;-81
2022/08/05 02:17:32;;;;;;;5.87;3.72;;;;;;;18.31;61.03;99135.05;1720021;82;22149;-80
2022/08/05 02:20:03;;;;;;;7.03;4.40;;;;;;;18.25;61.12;99133.61;1718866;83;21053;-81
2022/08/05 02:22:46;;;;;;;6.83;4.28;;;;;;;18.25;61.53;99130.14;1677693;85;21444;-80
2022/08/05 02:25:23;;;;;;;7.27;3.90;;;;;;;18.26;61.78;99134.45;1695087;84;21048;-82
2022/08/05 02:27:55;;;;;;;6.10;3.70;;;;;;;18.23;60.91;99134.64;1689448;84;21053;-81
2022/08/05 02:30:24;;;;;;;6.33;3.60;;;;;;;18.18;61.37;99122.20;1689309;84;21529;-81
2022/08/05 02:32:54;;;;;;;7.35;3.90;;;;;;;18.14;61.56;99124.62;1696235;84;21015;-81
2022/08/05 02:35:25;;;;;;;9.05;4.10;;;;;;;18.11;61.89;99123.48;1713841;83;21016;-80
2022/08/05 02:37:54;;;;;;;7.92;4.37;;;;;;;18.09;62.36;99128.35;1709754;83;21055;-80
2022/08/05 02:40:23;;;;;;;6.70;4.10;;;;;;;18.09;62.51;99123.09;1699143;83;21023;-82
2022/08/05 02:42:51;;;;;;;7.72;3.60;;;;;;;18.08;63.23;99120.53;1697180;83;20992;-81
2022/08/05 02:45:18;;;;;;;8.83;4.25;;;;;;;18.08;63.56;99125.80;1694696;83;21305;-80
2022/08/05 02:47:46;;;;;;;6.00;3.47;;;;;;;18.07;64.09;99124.96;1709564;83;21016;-83
2022/08/05 02:50:14;;;;;;;8.13;3.70;;;;;;;18.08;63.31;99125.80;1690621;83;21552;-81
2022/08/05 02:52:43;;;;;;;8.20;3.75;;;;;;;18.09;63.53;99129.67;1710135;83;21055;-81
2022/08/05 02:55:10;;;;;;;5.90;3.42;;;;;;;18.11;63.80;99134.02;1702217;83;21016;-80
2022/08/05 02:57:39;;;;;;;6.22;3.62;;;;;;;18.10;63.49;99131.83;1716460;83;20960;-80
2022/08/05 03:00:08;;;;;;;7.33;3.83;;;;;;;18.14;63.88;99131.19;1689798;83;21012;-81
2022/08/05 03:02:39;;;;;;;9.33;4.53;;;;;;;18.14;63.48;99137.77;1714831;82;21011;-81
2022/08/05 03:05:09;;;;;;;8.40;4.28;;;;;;;18.16;64.07;99133.27;1717347;83;21016;-80
2022/08/05 03:07:38;;;;;;;12.05;4.97;;;;;;;18.17;63.85;99132.35;1718074;83;20980;-81
2022/08/05 03:10:05;;;;;;;8.35;4.40;;;;;;;18.19;64.65;99138.38;1701109;83;21060;-80
2022/08/05 03:12:35;;;;;;;11.18;4.28;;;;;;;18.20;64.08;99138.74;1716433;83;21010;-81
2022/08/05 03:15:04;;;;;;;7.70;3.72;;;;;;;18.19;63.76;99141.01;1750907;81;21969;-80
2022/08/05 03:17:30;;;;;;;7.60;4.00;;;;;;;18.17;64.58;99142.40;1742776;81;21010;-80
2022/08/05 03:19:57;;;;;;;12.28;4.72;;;;;;;18.13;64.16;99143.98;1749241;81;21002;-81
2022/08/05 03:22:24;;;;;;;8.43;4.28;;;;;;;18.09;64.11;99138.88;1740848;81;20994;-81
2022/08/05 03:24:51;;;;;;;9.75;4.22;;;;;;;18.07;63.98;99139.91;1739238;81;21014;-80
2022/08/05 03:27:19;;;;;;;8.73;3.92;;;;;;;18.03;63.34;99142.33;1752476;81;21010;-80
2022/08/05 03:29:47;;;;;;;5.80;4.00;;;;;;;17.98;63.91;99142.55;1760257;81;21458;-82
2022/08/05 03:32:15;;;;;;;12.53;4.53;;;;;;;17.96;64.39;99145.73;1739110;81;20994;-81
2022/08/05 03:34:43;;;;;;;8.98;4.25;;;;;;;17.91;64.58;99145.16;1755565;81;20978;-80
2022/08/05 03:37:10;;;;;;;9.25;4.55;;;;;;;17.88;65.71;99142.68;1757380;81;21036;-82
2022/08/05 03:39:37;;;;;;;15.68;4.97;;;;;;;17.87;64.73;99152.83;1684447;83;21047;-80
2022/08/05 03:42:04;;;;;;;10.30;4.53;;;;;;;17.85;64.27;99147.64;1741165;81;21509;-80
2022/08/05 03:44:31;;;;;;;8.78;5.17;;;;;;;17.81;64.67;99147.87;1750898;81;21517;-80
2022/08/05 03:46:57;;;;;;;8.05;4.87;;;;;;;17.80;64.36;99152.73;1742052;81;21072;-81
2022/08/05 03:49:24;;;;;;;12.15;4.83;;;;;;;17.77;63.98;99143.72;1758244;81;21001;-82
2022/08/05 03:52:01;;;;;;;9.83;4.50;;;;;;;17.80;64.57;99147.00;1746349;81;21100;-81
2022/08/05 03:54:48;;;;;;;13.38;4.97;;;;;;;17.82;64.95;99148.23;1743743;81;21005;-81
2022/08/05 03:57:21;;;;;;;11.73;4.58;;;;;;;17.85;64.98;99155.53;1754195;81;21025;-81
2022/08/05 03:59:54;;;;;;;;;;;;;;;17.82;63.68;99151.71;1749546;81;21021;-81
2022/08/05 04:02:28;;;;;;;9.00;4.60;;;;;;;17.77;65.67;99148.97;1733105;81;20511;-81
2022/08/05 04:04:58;;;;;;;8.53;4.08;;;;;;;17.67;64.25;99149.45;1759201;81;20978;-82
2022/08/05 04:07:26;;;;;;;10.68;4.22;;;;;;;17.64;64.93;99148.28;1758602;81;20951;-80
2022/08/05 04:09:54;;;;;;;8.80;4.80;;;;;;;17.68;64.78;99149.82;1759995;81;20943;-82
2022/08/05 04:12:22;;;;;;;6.90;4.35;;;;;;;17.69;64.18;99143.64;1752645;81;21035;-81
2022/08/05 04:14:50;;;;;;;8.40;4.55;;;;;;;17.74;64.82;99147.80;1735370;82;21003;-81
2022/08/05 04:17:17;;;;;;;8.58;4.45;;;;;;;17.76;64.42;99154.67;1746729;81;20971;-81
2022/08/05 04:19:47;;;;;;;14.38;4.97;;;;;;;17.80;64.30;99148.31;1726926;82;21716;-80
2022/08/05 04:22:14;;;;;;;8.23;4.78;;;;;;;17.86;64.43;99152.43;1737876;82;21029;-80
2022/08/05 04:24:43;;;;;;;13.75;5.15;;;;;;;17.93;64.36;99145.92;1703958;83;21004;-80
2022/08/05 04:27:11;;;;;;;11.33;4.67;;;;;;;17.98;65.12;99144.34;1732669;83;21004;-81
2022/08/05 04:29:37;;;;;;;9.48;4.90;;;;;;;18.06;64.83;99145.64;1736039;82;20999;-80
2022/08/05 04:32:05;;;;;;;10.38;5.28;;;;;;;18.12;64.98;99144.42;1724290;83;21477;-81
2022/08/05 04:34:32;;;;;;;13.45;5.72;;;;;;;18.18;64.45;99141.92;1732695;83;21464;-81
2022/08/05 04:36:59;;;;;;;13.62;5.75;;;;;;;18.23;63.91;99143.38;1730723;83;20948;-80
2022/08/05 04:39:25;;;;;;;9.73;5.15;;;;;;;18.18;64.10;99144.56;1726061;83;20996;-82
2022/08/05 04:41:52;;;;;;;10.00;4.78;;;;;;;18.23;64.14;99147.32;1735752;83;21027;-81
2022/08/05 04:44:18;;;;;;;8.13;5.20;;;;;;;18.28;63.87;99143.98;1732329;82;21002;-80
2022/08/05 04:46:45;;;;;;;11.60;6.30;;;;;;;18.36;64.10;99142.20;1717403;83;21578;-80
2022/08/05 04:49:12;;;;;;;15.65;5.05;;;;;;;18.43;63.81;99145.36;1725072;83;20999;-81
2022/08/05 04:51:38;;;;;;;11.95;5.25;;;;;;;18.51;63.86;99146.24;1713036;83;20990;-81
2022/08/05 04:54:05;;;;;;;10.03;4.87;;;;;;;18.57;63.44;99144.58;1736008;83;21031;-81
2022/08/05 04:56:32;;;;;;;8.05;4.45;;;;;;;18.64;63.75;99136.69;1715619;83;21484;-81
2022/08/05 04:58:59;;;;;;;5.72;3.77;;;;;;;18.71;62.84;99143.78;1734033;82;20988;-81
2022/08/05 05:01:25;;;;;;;7.80;3.98;;;;;;;18.69;62.43;99146.50;1709472;83;21586;-82
2022/08/05 05:03:52;;;;;;;11.33;4.50;;;;;;;18.71;62.95;99149.89;1674296;85;21027;-81
2022/08/05 05:06:18;;;;;;;8.23;4.45;;;;;;;18.76;63.34;99141.27;1686863;85;20978;-81
2022/08/05 05:08:45;;;;;;;7.05;3.87;;;;;;;18.82;62.80;99142.26;1685805;85;20992;-82
2022/08/05 05:11:11;;;;;;;10.40;4.28;;;;;;;18.94;62.72;99138.50;1661002;85;21574;-78
2022/08/05 05:13:38;;;;;;;7.97;4.40;;;;;;;18.97;62.30;99139.66;1695057;85;21087;-80
2022/08/05 05:16:05;;;;;;;9.53;4.25;;;;;;;19.04;62.72;99133.09;1696108;84;21547;-78
2022/08/05 05:18:31;;;;;;;6.25;3.92;;;;;;;19.11;62.18;99133.57;1695844;85;21643;-81
2022/08/05 05:20:58;;;;;;;13.78;3.85;;;;;;;19.21;61.96;99139.98;1694794;85;21023;-81
2022/08/05 05:23:24;;;;;;;13.48;4.40;;;;;;;19.29;61.69;99132.45;1695937;85;21011;-80
2022/08/05 05:25:51;;;;;;;9.13;4.30;;;;;;;19.39;61.87;99134.07;1683153;85;21555;-81
2022/08/05 05:28:18;;;;;;;9.18;4.00;;;;;;;19.49;61.59;99129.92;1680859;85;21134;-81
2022/08/05 05:30:46;;;;;;;10.32;4.22;;;;;;;19.59;60.90;99136.80;1728703;83;21034;-80
2022/08/05 05:33:12;;;;;;;9.68;4.28;;;;;;;19.59;60.78;99135.01;1715600;83;21026;-79
2022/08/05 05:35:39;;;;;;;10.28;3.85;;;;;;;19.68;60.41;99129.17;1716163;83;21512;-79
2022/08/05 05:38:06;;;;;;;8.88;3.77;;;;;;;19.73;60.43;99134.66;1706786;83;21006;-78
2022/08/05 05:40:33;;;;;;;12.88;4.03;;;;;;;19.77;60.24;99130.41;1726757;83;20964;-79
2022/08/05 05:43:00;;;;;;;8.90;3.70;;;;;;;19.86;59.95;99123.73;1716216;83;20987;-80
2022/08/05 05:45:27;;;;;;;7.08;3.55;;;;;;;19.93;59.73;99126.81;1735743;83;20956;-80
2022/08/05 05:47:53;;;;;;;6.50;3.65;;;;;;;20.02;59.22;99127.56;1722512;82;21006;-79
2022/08/05 05:50:20;;;;;;;6.87;3.22;;;;;;;20.10;59.07;99123.97;1724708;83;20980;-79
2022/08/05 05:52:47;;;;;;;7.40;3.90;;;;;;;20.21;58.85;99129.86;1722260;83;21089;-79
2022/08/05 05:55:16;;;;;;;7.62;4.10;;;;;;;20.30;58.51;99128.44;1722761;83;21034;-79
2022/08/05 05:57:46;;;;;;;8.45;3.62;;;;;;;20.38;58.37;99115.11;1731008;83;20956;-77
2022/08/05 06:00:18;;;;;;;10.18;3.60;;;;;;;20.43;58.02;99115.66;1721437;83;21101;-80
2022/08/05 06:02:46;;;;;;;11.12;3.58;;;;;;;20.49;57.67;99111.75;1721103;82;21054;-80
2022/08/05 06:05:15;;;;;;;6.35;3.50;;;;;;;20.57;57.43;99111.25;1724777;83;20988;-80
2022/08/05 06:07:44;;;;;;;12.68;3.47;;;;;;;20.66;57.43;99113.33;1728339;83;21613;-80
2022/08/05 06:10:11;;;;;;;7.65;3.22;;;;;;;20.75;57.11;99111.41;1710941;83;21537;-80
2022/08/05 06:12:39;;;;;;;7.35;3.37;;;;;;;20.90;56.97;99111.31;1722403;82;21581;-81
2022/08/05 06:15:07;;;;;;;4.22;2.72;;;;;;;21.03;56.52;99117.47;1715743;83;21141;-80
2022/08/05 06:17:34;;;;;;;7.22;2.77;;;;;;;21.13;55.96;99114.56;1727676;83;21152;-80
2022/08/05 06:20:03;;;;;;;4.62;2.87;;;;;;;21.23;55.87;99114.78;1722784;82;21089;-79
2022/08/05 06:22:33;;;;;;;9.30;3.22;;;;;;;21.35;55.79;99118.38;1727467;81;21035;-78
2022/08/05 06:25:01;;;;;;;7.12;2.85;;;;;;;21.46;53.99;99117.17;1719176;81;21010;-79
2022/08/05 06:27:28;;;;;;;5.28;3.08;;;;;;;21.57;54.74;99118.60;1670034;85;21083;-81
2022/08/05 06:29:55;;;;;;;7.50;2.72;;;;;;;21.67;54.52;99119.29;1676250;84;21012;-79
2022/08/05 06:32:21;;;;;;;6.10;2.70;;;;;;;21.78;54.18;99116.22;1691775;84;21024;-78
2022/08/05 06:34:48;;;;;;;4.70;2.72;;;;;;;21.89;54.03;99115.47;1674655;84;21524;-79
2022/08/05 06:37:15;;;;;;;6.00;3.00;;;;;;;22.00;53.84;99114.69;1683657;84;21042;-81
2022/08/05 06:39:42;;;;;;;5.87;2.95;;;;;;;;;;1718856;83;21037;-80
2022/08/05 06:42:08;;;;;;;5.90;3.40;;;;;;;22.21;53.14;99118.44;1713664;83;20972;-80
2022/08/05 06:44:35;;;;;;;7.50;3.42;;;;;;;22.31;52.94;99117.32;1674568;84;21066;-79
2022/08/05 06:47:02;;;;;;;6.22;3.37;;;;;;;22.40;52.61;99117.98;1677975;84;21503;-81
2022/08/05 06:49:28;;;;;;;5.50;2.92;;;;;;;22.51;52.24;99116.34;1683506;84;21074;-79
2022/08/05 06:51:55;;;;;;;6.53;3.33;;;;;;;22.61;52.19;99116.02;1681051;84;21079;-80
2022/08/05 06:54:22;;;;;;;5.37;3.27;;;;;;;22.73;52.11;99119.06;1684006;84;21020;-80
2022/08/05 06:56:49;;;;;;;4.55;3.10;;;;;;;22.86;51.67;99120.33;1680188;84;21486;-80
2022/08/05 06:59:15;;;;;;;5.05;3.30;;;;;;;23.00;51.76;99120.61;1684369;84;21023;-79
2022/08/05 07:01:42;;;;;;;5.83;3.35;;;;;;;23.15;51.43;99118.61;1684890;84;21019;-79
2022/08/05 07:04:09;;;;;;;5.97;3.35;;;;;;;23.27;51.12;99113.68;1685039;84;21053;-78
2022/08/05 07:06:36;;;;;;;4.60;2.87;;;;;;;23.38;50.67;99115.52;1688149;84;21047;-79
2022/08/05 07:09:03;;;;;;;7.78;3.00;;;;;;;23.53;50.19;99114.78;1683654;84;21026;-78
2022/08/05 07:11:32;;;;;;;6.55;3.05;;;;;;;23.63;49.06;99113.95;1679042;84;21041;-79
2022/08/05 07:16:49;;;;;;;6.45;3.12;;;;;;;23.80;48.68;99105.16;1686566;84;21127;-79
2022/08/05 07:19:20;;;;;;;6.42;2.83;;;;;;;23.91;48.62;99106.95;1678663;84;20994;-78
2022/08/05 07:21:49;;;;;;;6.20;2.92;;;;;;;23.96;48.16;99106.94;1678411;84;21047;-80
2022/08/05 07:24:17;;;;;;;6.85;3.10;;;;;;;24.06;48.44;99100.91;1688234;84;21017;-80
2022/08/05 07:26:45;;;;;;;5.72;2.90;;;;;;;24.15;48.33;99098.81;1681880;84;21051;-81
2022/08/05 07:29:11;;;;;;;5.50;2.85;;;;;;;24.24;48.41;99102.05;1688694;84;21083;-80
2022/08/05 07:31:39;;;;;;;7.55;2.85;;;;;;;24.34;48.04;99095.02;1680993;84;21678;-79
2022/08/05 07:34:06;;;;;;;4.30;2.77;;;;;;;24.46;47.72;99100.30;1679780;84;21068;-79
2022/08/05 07:36:33;;;;;;;7.42;3.40;;;;;;;24.54;47.33;99103.19;1688321;84;21023;-80
2022/08/05 07:39:02;;;;;;;5.45;2.90;;;;;;;24.60;47.11;99095.54;1685912;84;21516;-80
2022/08/05 07:41:29;;;;;;;5.40;3.10;;;;;;;24.73;47.33;99098.03;1684321;84;21047;-81
2022/08/05 07:43:58;;;;;;;4.67;2.75;;;;;;;24.88;47.33;99094.55;1686827;84;21076;-80
2022/08/05 07:46:27;;;;;;;6.53;2.90;;;;;;;25.00;46.84;99088.69;1689133;84;20992;-79
2022/08/05 07:48:56;;;;;;;4.30;2.70;;;;;;;25.16;46.60;99094.87;1684260;84;21000;-80
2022/08/05 07:51:23;;;;;;;4.67;2.72;;;;;;;25.28;46.35;99091.18;1685548;84;21048;-81
2022/08/05 07:53:49;;;;;;;4.42;2.83;;;;;;;25.40;45.88;99082.62;1681035;84;21032;-83
2022/08/05 07:56:16;;;;;;;9.83;3.33;;;;;;;25.50;44.80;99086.16;1656057;84;21052;-83
2022/08/05 07:58:42;;;;;;;9.63;2.92;;;;;;;25.60;45.07;99091.06;1682834;84;21047;-82
2022/08/05 08:01:09;;;;;;;5.90;2.85;;;;;;;25.72;44.66;99073.63;1683428;84;21070;-80
2022/08/05 08:03:36;;;;;;;9.80;2.72;;;;;;;25.79;44.96;99084.94;1682922;84;20996;-80
2022/08/05 08:06:03;;;;;;;10.88;3.25;;;;;;;25.89;45.14;99076.98;1681031;84;21039;-78
2022/08/05 08:08:30;;;;;;;4.50;2.70;;;;;;;26.01;44.45;99083.06;1689516;84;21518;-79
2022/08/05 08:10:56;;;;;;;6.80;2.95;;;;;;;26.11;43.51;99081.26;1714324;83;21002;-80
2022/08/05 08:13:23;;;;;;;6.97;2.87;;;;;;;26.16;44.12;99079.03;1723722;82;21451;-80
2022/08/05 08:15:49;;;;;;;5.17;2.60;;;;;;;26.28;43.13;99085.55;1717246;83;20991;-79
2022/08/05 08:18:16;;;;;;;6.97;2.80;;;;;;;26.36;42.80;99074.56;1713091;83;21093;-78
2022/08/05 08:20:43;;;;;;;6.78;2.70;;;;;;;26.41;42.76;99071.47;1721714;83;21016;-80
2022/08/05 08:23:10;;;;;;;5.55;3.10;;;;;;;26.48;42.94;99066.41;1715408;83;20990;-79
2022/08/05 08:25:37;;;;;;;6.47;3.00;;;;;;;26.55;42.70;99065.70;1719398;83;21051;-79
2022/08/05 08:28:03;;;;;;;7.00;2.47;;;;;;;26.62;42.52;99064.70;1717820;82;20987;-81
2022/08/05 08:30:30;;;;;;;5.40;3.02;;;;;;;26.68;41.96;99064.59;1715398;83;20994;-78
2022/08/05 08:32:56;;;;;;;6.20;3.08;;;;;;;26.76;41.19;99064.25;1711747;83;20972;-79
2022/08/05 08:35:23;;;;;;;5.62;3.20;;;;;;;26.92;41.51;99062.83;1716579;83;20980;-80
2022/08/05 08:37:50;;;;;;;7.97;2.60;;;;;;;27.01;41.80;99064.61;1716441;83;21092;-79
2022/08/05 08:40:17;;;;;;;4.70;2.85;;;;;;;27.15;41.41;99065.48;1723747;82;21042;-80
2022/08/05 08:42:47;;;;;;;5.60;2.90;;;;;;;27.27;41.88;99073.35;1722359;83;20952;-80
2022/08/05 08:45:14;;;;;;;10.78;2.70;;;;;;;27.43;41.39;99069.56;1701817;83;21510;-79
2022/08/05 08:47:44;;;;;;;4.45;3.08;;;;;;;27.50;41.35;99067.16;1711678;83;21520;-80
2022/08/05 08:50:12;;;;;;;3.90;2.50;;;;;;;27.58;40.53;99069.43;1732358;83;20972;-79
2022/08/05 08:52:44;;;;;;;7.03;2.60;;;;;;;27.66;39.41;99057.17;1716467;83;20960;-80
2022/08/05 08:55:12;;;;;;;5.53;2.67;;;;;;;27.75;40.15;99056.27;1722833;83;20991;-79
2022/08/05 08:57:40;;;;;;;6.33;2.87;;;;;;;27.83;40.14;99057.69;1719210;83;21020;-79
2022/08/05 09:00:08;;;;;;;5.40;2.80;;;;;;;27.92;40.30;99054.66;1718552;83;21130;-79
2022/08/05 09:02:36;;;;;;;6.85;2.72;;;;;;;28.05;39.86;99052.95;1723068;83;21322;-80
2022/08/05 09:05:03;;;;;;;5.35;2.60;;;;;;;28.13;38.83;99046.34;1717606;83;21015;-80
2022/08/05 09:07:30;;;;;;;5.03;2.58;;;;;;;28.26;38.66;99045.47;1723005;83;21005;-80
2022/08/05 09:09:57;;;;;;;5.00;2.75;;;;;;;28.34;38.97;99041.53;1715772;82;21457;-80
2022/08/05 09:12:24;;;;;;;6.20;3.00;;;;;;;28.41;38.94;99035.57;1674110;85;20997;-79
2022/08/05 09:14:50;;;;;;;5.17;3.00;;;;;;;28.53;38.44;99035.70;1680679;84;21068;-80
2022/08/05 09:17:18;;;;;;;7.28;2.75;;;;;;;28.63;38.58;99031.59;1690565;85;21024;-80
2022/08/05 09:19:45;;;;;;;6.20;2.50;;;;;;;28.78;38.05;99039.41;1674242;85;21079;-82
2022/08/05 09:22:11;;;;;;;5.17;2.67;;;;;;;28.88;38.07;99022.75;1686716;85;21008;-82
2022/08/05 09:24:38;;;;;;;5.75;2.83;;;;;;;28.95;37.90;99027.83;1668823;85;21031;-81
2022/08/05 09:27:08;;;;;;;5.83;2.95;;;;;;;29.09;37.29;99026.91;1688904;85;21062;-80
2022/08/05 09:29:48;;;;;;;4.28;2.65;;;;;;;29.17;37.39;99024.30;1686648;85;21129;-81
2022/08/05 09:32:14;;;;;;;7.17;2.58;;;;;;;29.24;37.02;99018.63;1735537;83;20995;-82
2022/08/05 09:34:50;;;;;;;4.42;2.50;;;;;;;29.33;36.29;99014.17;1720247;83;21039;-82
2022/08/05 09:37:22;;;;;;;5.03;2.20;;;;;;;29.44;35.71;99005.83;1729416;83;20991;-81
2022/08/05 09:39:49;;;;;;;6.03;3.05;;;;;;;29.50;34.99;99003.84;1723549;82;21011;-81
2022/08/05 09:42:22;;;;;;;7.80;2.80;;;;;;;29.68;35.00;99004.23;1716933;83;20948;-81
2022/08/05 09:44:51;;;;;;;3.55;2.47;;;;;;;29.73;35.22;98997.93;1714502;83;21034;-80
2022/08/05 09:47:24;;;;;;;4.12;2.30;;;;;;;29.85;33.06;99001.14;1716303;83;21467;-81
2022/08/05 09:49:55;;;;;;;4.10;2.30;;;;;;;29.96;34.96;99002.65;1722006;83;21006;-80
2022/08/05 09:52:35;;;;;;;3.40;2.30;;;;;;;30.06;34.87;98997.48;1706859;83;21007;-80
2022/08/05 09:55:11;;;;;;;3.92;2.40;;;;;;;30.18;34.73;98993.95;1722986;83;21034;-82
2022/08/05 09:57:46;;;;;;;5.72;2.33;;;;;;;30.25;34.27;98992.80;1715363;83;22323;-81
2022/08/05 10:00:18;;;;;;;8.45;1.98;;;;;;;30.28;34.25;98991.97;1734331;83;21023;-81
2022/08/05 10:02:53;;;;;;;4.17;2.23;;;;;;;30.43;33.51;98984.62;1719604;83;21504;-80
2022/08/05 10:05:23;;;;;;;5.20;2.00;;;;;;;30.63;32.85;98979.73;1726806;82;21071;-83
2022/08/05 10:08:02;;;;;;;4.83;2.12;;;;;;;30.84;32.84;98982.71;1730365;83;21032;-86
2022/08/05 10:10:45;;;;;;;6.03;2.25;;;;;;;31.00;32.45;98983.20;1721795;83;21002;-83
2022/08/05 10:13:26;;;;;;;3.60;1.98;;;;;;;31.15;31.66;98971.73;1724080;82;21015;-80
2022/08/05 10:15:54;;;;;;;3.42;2.02;;;;;;;31.21;30.88;98975.06;1730578;82;21074;-80
2022/08/05 10:18:21;;;;;;;6.67;2.30;;;;;;;31.24;31.13;98968.84;1721843;82;21030;-82
2022/08/05 10:20:55;;;;;;;3.27;1.95;;;;;;;31.30;31.37;98965.97;1740526;82;21090;-81
2022/08/05 10:23:35;;;;;;;6.20;2.10;;;;;;;31.45;30.06;98962.05;1710842;82;21020;-80
2022/08/05 10:26:06;;;;;;;4.10;2.40;;;;;;;31.66;30.78;98959.59;1721269;83;21515;-80
2022/08/05 10:28:33;;;;;;;3.98;2.20;;;;;;;31.84;30.80;98957.13;1685180;85;21032;-80
2022/08/05 10:31:00;;;;;;;4.70;2.58;;;;;;;31.93;30.88;98952.00;1709265;83;21023;-79
2022/08/05 10:33:31;;;;;;;5.33;2.25;;;;;;;32.06;30.62;98952.79;1709972;83;20991;-80
2022/08/05 10:36:02;;;;;;;3.77;2.17;;;;;;;32.22;30.44;98950.48;1692022;83;21500;-79
2022/08/05 10:38:32;;;;;;;3.58;2.30;;;;;;;32.34;30.41;98952.22;1710509;83;20980;-79
2022/08/05 10:41:30;;;;;;;3.20;2.20;;;;;;;32.46;30.04;98945.38;1713128;83;21007;-80
2022/08/05 10:44:02;;;;;;;3.77;2.50;;;;;;;32.48;29.67;98946.86;1703941;83;21051;-79
2022/08/05 10:46:49;;;;;;;6.03;2.40;;;;;;;32.50;29.53;98941.30;1713881;83;21046;-79
2022/08/05 10:49:16;;;;;;;3.70;2.30;;;;;;;32.55;29.71;98935.36;1705788;83;21047;-81
2022/08/05 10:51:56;;;;;;;5.55;2.22;;;;;;;32.56;29.05;98931.69;1707833;83;21384;-80
2022/08/05 10:54:18;;;;;;;4.22;2.40;;;;;;;32.60;28.50;98923.58;1705358;83;21055;-80
2022/08/05 10:56:54;;;;;;;4.37;2.47;;;;;;;32.59;28.45;98929.47;1722049;83;21051;-79
2022/08/05 10:59:29;;;;;;;3.90;2.40;;;;;;;32.56;27.95;98925.80;1681357;85;21617;-80
2022/08/05 11:02:13;;;;;;;4.30;2.50;;;;;;;32.60;28.43;98919.54;1724001;82;21120;-80
2022/08/05 11:04:46;;;;;;;5.53;2.52;;;;;;;32.64;28.35;98916.28;1709630;83;21083;-80
2022/08/05 11:07:17;;;;;;;2.85;1.85;;;;;;;32.68;27.26;98920.27;1698421;83;21009;-81
2022/08/05 11:09:50;;;;;;;4.00;2.40;;;;;;;32.82;28.26;98917.77;1695639;83;21102;-82
2022/08/05 11:12:40;;;;;;;3.52;2.02;;;;;;;32.97;28.28;98917.27;1691063;85;20964;-81
2022/08/05 11:15:16;;;;;;;4.35;2.10;;;;;;;33.17;28.36;98915.38;1660080;85;21056;-80
2022/08/05 11:17:46;;;;;;;4.62;2.40;;;;;;;33.34;28.13;98914.10;1678439;85;21060;-82
2022/08/05 11:20:44;;;;;;;4.08;2.37;;;;;;;33.42;27.08;98911.80;1677238;85;21103;-82
2022/08/05 11:23:42;;;;;;;3.30;2.20;;;;;;;33.41;26.54;98910.16;1674668;85;21126;-81
2022/08/05 11:26:18;;;;;;;7.50;2.08;;;;;;;33.40;26.52;98909.30;1674061;84;21001;-81
2022/08/05 11:28:48;;;;;;;5.05;2.35;;;;;;;33.44;26.14;98910.58;1678582;84;21104;-82
2022/08/05 11:31:19;;;;;;;3.85;2.35;;;;;;;33.45;26.07;98901.48;1689945;84;20974;-80
2022/08/05 11:33:51;;;;;;;3.67;2.20;;;;;;;33.50;26.32;98914.38;1683104;84;21044;-82
2022/08/05 11:36:28;;;;;;;5.10;2.45;;;;;;;33.60;26.43;98910.03;1682237;84;21025;-81
2022/08/05 11:38:55;;;;;;;2.83;1.90;;;;;;;33.71;26.16;98904.69;1685755;83;21586;-80
2022/08/05 11:41:27;;;;;;;3.20;2.17;;;;;;;33.79;25.72;98899.99;1681899;84;21083;-80
2022/08/05 11:44:01;;;;;;;2.80;2.02;;;;;;;33.79;25.61;98907.25;1689733;84;21015;-81
2022/08/05 11:46:35;;;;;;;4.35;2.37;;;;;;;33.90;24.27;98900.50;1684675;84;21579;-81
2022/08/05 11:49:04;;;;;;;3.80;2.35;;;;;;;33.87;24.58;98894.98;1675866;84;21080;-79